Murphy, Idaho
Current Conditions -  °F | °C
As of 8:15 PM on Friday 21 Nov 2014 (Local Time) from KMAN Reporting Station
Overcast Overcast  
Wind Chill: 32°   Ceiling: 3800
Heat Index: 32°   Visibility: 2.5mi
Dew Point: 32°   Wind: 0mph
Humidity: 100%   Direction: NA
Pressure: 29.89"   Gusts: NA
Location:  43.22°N, 116.55°W
Report Text: KMAN 220315Z AUTO 00000KT 2 1/2SM OVC038 00/00 A2989 RMK AO1
Loading
Personal Weather Stations






























Interactive Weather Map New forecast layout! Learn more

10-Day Weather Forecast

Advertisements
Track Severe Weather on mobile